sensor_id;sensor_type;location;lat;lon;timestamp;P1;durP1;ratioP1;P2;durP2;ratioP2
64353;SDS011;50681;53.334;-6.536;2023-06-22T11:58:58;38.13;;;4.32;;
64353;SDS011;50681;53.334;-6.536;2023-06-22T12:02:41;5.90;;;2.67;;
64353;SDS011;50681;53.334;-6.536;2023-06-22T12:05:07;4.47;;;2.78;;
64353;SDS011;50681;53.334;-6.536;2023-06-22T12:07:37;5.70;;;2.75;;
64353;SDS011;50681;53.334;-6.536;2023-06-22T12:10:04;10.52;;;2.70;;
64353;SDS011;50681;53.334;-6.536;2023-06-22T12:12:30;10.55;;;2.90;;
64353;SDS011;50681;53.334;-6.536;2023-06-22T12:14:55;4.47;;;2.42;;
64353;SDS011;50681;53.334;-6.536;2023-06-22T12:17:21;20.52;;;2.88;;
64353;SDS011;50681;53.334;-6.536;2023-06-22T12:19:46;5.68;;;2.30;;
64353;SDS011;50681;53.334;-6.536;2023-06-22T12:22:12;7.18;;;2.80;;
64353;SDS011;50681;53.334;-6.536;2023-06-22T12:24:40;10.63;;;2.30;;
64353;SDS011;50681;53.334;-6.536;2023-06-22T12:27:06;5.32;;;2.42;;
64353;SDS011;50681;53.334;-6.536;2023-06-22T12:29:33;5.20;;;2.25;;
64353;SDS011;50681;53.334;-6.536;2023-06-22T12:32:00;7.32;;;2.55;;
64353;SDS011;50681;53.334;-6.536;2023-06-22T12:34:26;5.60;;;2.20;;
64353;SDS011;50681;53.334;-6.536;2023-06-22T12:36:54;6.40;;;2.45;;
64353;SDS011;50681;53.334;-6.536;2023-06-22T12:39:20;8.30;;;3.20;;
64353;SDS011;50681;53.334;-6.536;2023-06-22T12:41:45;8.15;;;3.50;;
64353;SDS011;50681;53.334;-6.536;2023-06-22T12:44:20;8.25;;;3.42;;
64353;SDS011;50681;53.334;-6.536;2023-06-22T12:46:48;8.35;;;3.33;;
64353;SDS011;50681;53.334;-6.536;2023-06-22T12:49:14;14.30;;;3.40;;
64353;SDS011;50681;53.334;-6.536;2023-06-22T12:51:40;7.32;;;3.60;;
64353;SDS011;50681;53.334;-6.536;2023-06-22T12:54:09;16.05;;;3.70;;
64353;SDS011;50681;53.334;-6.536;2023-06-22T12:56:39;8.65;;;4.20;;
64353;SDS011;50681;53.334;-6.536;2023-06-22T13:02:55;12.98;;;4.68;;
64353;SDS011;50681;53.334;-6.536;2023-06-22T13:07:58;8.98;;;3.42;;
64353;SDS011;50681;53.334;-6.536;2023-06-22T13:13:02;6.90;;;3.47;;
64353;SDS011;50681;53.334;-6.536;2023-06-22T13:19:18;10.95;;;3.45;;
64353;SDS011;50681;53.334;-6.536;2023-06-22T13:22:25;11.60;;;3.90;;
64353;SDS011;50681;53.334;-6.536;2023-06-22T13:25:23;7.50;;;3.28;;
64353;SDS011;50681;53.334;-6.536;2023-06-22T13:27:57;13.82;;;3.90;;
64353;SDS011;50681;53.334;-6.536;2023-06-22T13:30:26;12.43;;;3.70;;
64353;SDS011;50681;53.334;-6.536;2023-06-22T13:32:56;6.97;;;3.80;;
64353;SDS011;50681;53.334;-6.536;2023-06-22T13:35:24;10.27;;;3.90;;
64353;SDS011;50681;53.334;-6.536;2023-06-22T13:37:52;9.25;;;3.63;;
64353;SDS011;50681;53.334;-6.536;2023-06-22T13:40:28;10.70;;;3.90;;
64353;SDS011;50681;53.334;-6.536;2023-06-22T13:42:56;12.85;;;3.63;;
64353;SDS011;50681;53.334;-6.536;2023-06-22T13:45:22;8.80;;;3.60;;
64353;SDS011;50681;53.334;-6.536;2023-06-22T13:47:47;8.13;;;4.05;;
64353;SDS011;50681;53.334;-6.536;2023-06-22T13:50:13;14.23;;;3.60;;
64353;SDS011;50681;53.334;-6.536;2023-06-22T13:52:41;8.63;;;3.38;;
64353;SDS011;50681;53.334;-6.536;2023-06-22T13:55:07;10.18;;;3.78;;
64353;SDS011;50681;53.334;-6.536;2023-06-22T14:00:04;7.20;;;3.45;;
64353;SDS011;50681;53.334;-6.536;2023-06-22T14:02:30;7.72;;;3.55;;
64353;SDS011;50681;53.334;-6.536;2023-06-22T14:04:56;14.68;;;3.58;;
64353;SDS011;50681;53.334;-6.536;2023-06-22T14:07:21;16.15;;;3.92;;
64353;SDS011;50681;53.334;-6.536;2023-06-22T14:09:50;14.15;;;3.47;;
64353;SDS011;50681;53.334;-6.536;2023-06-22T14:12:16;10.50;;;3.45;;
64353;SDS011;50681;53.334;-6.536;2023-06-22T14:14:47;8.38;;;3.30;;
64353;SDS011;50681;53.334;-6.536;2023-06-22T14:17:13;9.98;;;3.60;;
64353;SDS011;50681;53.334;-6.536;2023-06-22T14:19:38;7.22;;;3.58;;
64353;SDS011;50681;53.334;-6.536;2023-06-22T14:22:04;5.15;;;3.15;;
64353;SDS011;50681;53.334;-6.536;2023-06-22T14:24:29;8.88;;;3.58;;
64353;SDS011;50681;53.334;-6.536;2023-06-22T14:26:55;6.53;;;3.55;;
64353;SDS011;50681;53.334;-6.536;2023-06-22T14:29:21;10.48;;;3.30;;
64353;SDS011;50681;53.334;-6.536;2023-06-22T14:31:47;7.13;;;3.05;;
64353;SDS011;50681;53.334;-6.536;2023-06-22T14:34:13;6.57;;;3.50;;
64353;SDS011;50681;53.334;-6.536;2023-06-22T14:36:39;6.20;;;3.53;;
64353;SDS011;50681;53.334;-6.536;2023-06-22T14:39:08;6.65;;;3.20;;
64353;SDS011;50681;53.334;-6.536;2023-06-22T14:41:34;12.30;;;3.35;;
64353;SDS011;50681;53.334;-6.536;2023-06-22T14:43:59;6.55;;;2.92;;
64353;SDS011;50681;53.334;-6.536;2023-06-22T14:46:30;7.93;;;3.30;;
64353;SDS011;50681;53.334;-6.536;2023-06-22T14:48:56;10.07;;;3.15;;
64353;SDS011;50681;53.334;-6.536;2023-06-22T14:51:24;7.75;;;3.28;;
64353;SDS011;50681;53.334;-6.536;2023-06-22T14:53:50;5.97;;;3.22;;
64353;SDS011;50681;53.334;-6.536;2023-06-22T14:56:16;5.38;;;3.10;;
64353;SDS011;50681;53.334;-6.536;2023-06-22T14:58:41;15.35;;;3.58;;
64353;SDS011;50681;53.334;-6.536;2023-06-22T15:01:11;10.07;;;3.28;;
64353;SDS011;50681;53.334;-6.536;2023-06-22T15:06:03;12.05;;;3.47;;
64353;SDS011;50681;53.334;-6.536;2023-06-22T15:08:28;5.82;;;3.38;;
64353;SDS011;50681;53.334;-6.536;2023-06-22T15:13:19;6.07;;;3.47;;
64353;SDS011;50681;53.334;-6.536;2023-06-22T15:15:46;7.93;;;3.13;;
64353;SDS011;50681;53.334;-6.536;2023-06-22T15:18:21;7.82;;;3.10;;
64353;SDS011;50681;53.334;-6.536;2023-06-22T15:20:47;8.40;;;3.25;;
64353;SDS011;50681;53.334;-6.536;2023-06-22T15:25:38;10.43;;;3.05;;
64353;SDS011;50681;53.334;-6.536;2023-06-22T15:30:29;8.93;;;2.72;;
64353;SDS011;50681;53.334;-6.536;2023-06-22T15:32:55;5.60;;;2.53;;
64353;SDS011;50681;53.334;-6.536;2023-06-22T15:37:47;8.52;;;2.50;;
64353;SDS011;50681;53.334;-6.536;2023-06-22T15:42:38;7.90;;;2.72;;
64353;SDS011;50681;53.334;-6.536;2023-06-22T15:45:05;8.23;;;2.70;;
64353;SDS011;50681;53.334;-6.536;2023-06-22T15:47:31;8.13;;;2.45;;
64353;SDS011;50681;53.334;-6.536;2023-06-22T15:49:56;6.45;;;2.45;;
64353;SDS011;50681;53.334;-6.536;2023-06-22T15:52:22;8.13;;;2.60;;
64353;SDS011;50681;53.334;-6.536;2023-06-22T15:54:47;4.97;;;2.40;;
64353;SDS011;50681;53.334;-6.536;2023-06-22T15:57:15;7.30;;;2.55;;
64353;SDS011;50681;53.334;-6.536;2023-06-22T15:59:48;5.00;;;2.58;;
64353;SDS011;50681;53.334;-6.536;2023-06-22T16:02:14;8.52;;;2.75;;
64353;SDS011;50681;53.334;-6.536;2023-06-22T16:04:39;5.57;;;2.50;;
64353;SDS011;50681;53.334;-6.536;2023-06-22T16:07:05;9.63;;;2.70;;
64353;SDS011;50681;53.334;-6.536;2023-06-22T16:09:31;6.72;;;2.42;;
64353;SDS011;50681;53.334;-6.536;2023-06-22T16:11:56;5.30;;;2.70;;
64353;SDS011;50681;53.334;-6.536;2023-06-22T16:14:22;5.15;;;2.60;;
64353;SDS011;50681;53.334;-6.536;2023-06-22T16:16:47;8.13;;;2.53;;
64353;SDS011;50681;53.334;-6.536;2023-06-22T16:19:13;10.02;;;2.53;;
64353;SDS011;50681;53.334;-6.536;2023-06-22T16:21:39;5.68;;;2.63;;
64353;SDS011;50681;53.334;-6.536;2023-06-22T16:24:04;4.18;;;2.30;;
64353;SDS011;50681;53.334;-6.536;2023-06-22T16:26:34;6.55;;;2.00;;
64353;SDS011;50681;53.334;-6.536;2023-06-22T16:29:04;6.88;;;2.38;;
64353;SDS011;50681;53.334;-6.536;2023-06-22T16:31:29;6.43;;;2.65;;
64353;SDS011;50681;53.334;-6.536;2023-06-22T16:33:54;6.20;;;2.60;;
64353;SDS011;50681;53.334;-6.536;2023-06-22T16:36:20;5.85;;;2.47;;
64353;SDS011;50681;53.334;-6.536;2023-06-22T16:38:46;5.47;;;2.90;;
64353;SDS011;50681;53.334;-6.536;2023-06-22T16:41:11;4.65;;;2.33;;
64353;SDS011;50681;53.334;-6.536;2023-06-22T16:43:37;8.82;;;2.97;;
64353;SDS011;50681;53.334;-6.536;2023-06-22T16:46:04;5.47;;;2.75;;
64353;SDS011;50681;53.334;-6.536;2023-06-22T16:48:29;13.25;;;2.90;;
64353;SDS011;50681;53.334;-6.536;2023-06-22T16:50:55;7.50;;;2.47;;
64353;SDS011;50681;53.334;-6.536;2023-06-22T16:53:23;6.05;;;2.47;;
64353;SDS011;50681;53.334;-6.536;2023-06-22T16:55:49;7.53;;;3.00;;
64353;SDS011;50681;53.334;-6.536;2023-06-22T16:58:15;5.35;;;2.67;;
64353;SDS011;50681;53.334;-6.536;2023-06-22T17:00:44;6.25;;;2.80;;
64353;SDS011;50681;53.334;-6.536;2023-06-22T17:03:11;8.07;;;2.97;;
64353;SDS011;50681;53.334;-6.536;2023-06-22T17:05:44;14.65;;;2.67;;
64353;SDS011;50681;53.334;-6.536;2023-06-22T17:08:11;7.70;;;2.72;;
64353;SDS011;50681;53.334;-6.536;2023-06-22T17:10:39;7.38;;;2.72;;
64353;SDS011;50681;53.334;-6.536;2023-06-22T17:13:06;7.05;;;2.38;;
64353;SDS011;50681;53.334;-6.536;2023-06-22T17:15:32;8.85;;;2.67;;
64353;SDS011;50681;53.334;-6.536;2023-06-22T17:18:01;8.70;;;2.40;;
64353;SDS011;50681;53.334;-6.536;2023-06-22T17:20:29;5.30;;;2.65;;
64353;SDS011;50681;53.334;-6.536;2023-06-22T17:22:54;6.60;;;2.40;;
64353;SDS011;50681;53.334;-6.536;2023-06-22T17:25:20;7.32;;;2.75;;
64353;SDS011;50681;53.334;-6.536;2023-06-22T17:27:47;7.43;;;2.67;;
64353;SDS011;50681;53.334;-6.536;2023-06-22T17:30:15;8.13;;;2.42;;
64353;SDS011;50681;53.334;-6.536;2023-06-22T17:32:46;5.88;;;2.88;;
64353;SDS011;50681;53.334;-6.536;2023-06-22T17:35:12;8.10;;;2.55;;
64353;SDS011;50681;53.334;-6.536;2023-06-22T17:37:48;9.23;;;3.00;;
64353;SDS011;50681;53.334;-6.536;2023-06-22T17:40:19;6.78;;;2.22;;
64353;SDS011;50681;53.334;-6.536;2023-06-22T17:42:47;6.03;;;2.78;;
64353;SDS011;50681;53.334;-6.536;2023-06-22T17:47:52;6.45;;;3.15;;
64353;SDS011;50681;53.334;-6.536;2023-06-22T17:50:21;5.35;;;3.00;;
64353;SDS011;50681;53.334;-6.536;2023-06-22T17:52:51;6.35;;;2.55;;
64353;SDS011;50681;53.334;-6.536;2023-06-22T17:55:21;5.57;;;2.53;;
64353;SDS011;50681;53.334;-6.536;2023-06-22T17:57:48;9.05;;;2.70;;
64353;SDS011;50681;53.334;-6.536;2023-06-22T18:00:19;5.03;;;2.58;;
64353;SDS011;50681;53.334;-6.536;2023-06-22T18:02:46;5.53;;;2.90;;
64353;SDS011;50681;53.334;-6.536;2023-06-22T18:05:14;5.68;;;2.90;;
64353;SDS011;50681;53.334;-6.536;2023-06-22T18:07:40;4.95;;;2.95;;
64353;SDS011;50681;53.334;-6.536;2023-06-22T18:12:58;4.35;;;2.40;;
64353;SDS011;50681;53.334;-6.536;2023-06-22T18:15:25;4.55;;;2.65;;
64353;SDS011;50681;53.334;-6.536;2023-06-22T18:17:51;5.28;;;2.70;;
64353;SDS011;50681;53.334;-6.536;2023-06-22T18:20:18;5.50;;;2.83;;
64353;SDS011;50681;53.334;-6.536;2023-06-22T18:22:46;5.95;;;3.10;;
64353;SDS011;50681;53.334;-6.536;2023-06-22T18:25:12;10.23;;;2.75;;
64353;SDS011;50681;53.334;-6.536;2023-06-22T18:27:38;6.60;;;3.00;;
64353;SDS011;50681;53.334;-6.536;2023-06-22T18:30:07;8.02;;;3.30;;
64353;SDS011;50681;53.334;-6.536;2023-06-22T18:32:34;9.50;;;3.38;;
64353;SDS011;50681;53.334;-6.536;2023-06-22T18:34:59;4.75;;;2.72;;
64353;SDS011;50681;53.334;-6.536;2023-06-22T18:39:56;8.90;;;3.10;;
64353;SDS011;50681;53.334;-6.536;2023-06-22T18:44:51;9.43;;;2.85;;
64353;SDS011;50681;53.334;-6.536;2023-06-22T18:47:28;5.60;;;2.67;;
64353;SDS011;50681;53.334;-6.536;2023-06-22T18:50:04;7.95;;;2.92;;
64353;SDS011;50681;53.334;-6.536;2023-06-22T18:52:31;5.10;;;2.95;;
64353;SDS011;50681;53.334;-6.536;2023-06-22T18:57:32;6.18;;;3.15;;
64353;SDS011;50681;53.334;-6.536;2023-06-22T18:59:59;12.15;;;3.33;;
64353;SDS011;50681;53.334;-6.536;2023-06-22T19:02:46;11.10;;;3.20;;
64353;SDS011;50681;53.334;-6.536;2023-06-22T19:05:19;4.88;;;2.95;;
64353;SDS011;50681;53.334;-6.536;2023-06-22T19:08:08;4.47;;;2.92;;
64353;SDS011;50681;53.334;-6.536;2023-06-22T19:13:20;6.20;;;3.22;;
64353;SDS011;50681;53.334;-6.536;2023-06-22T19:15:54;7.53;;;3.05;;
64353;SDS011;50681;53.334;-6.536;2023-06-22T19:18:24;6.85;;;3.47;;
64353;SDS011;50681;53.334;-6.536;2023-06-22T19:25:52;5.68;;;3.00;;
64353;SDS011;50681;53.334;-6.536;2023-06-22T19:28:22;4.57;;;2.95;;
64353;SDS011;50681;53.334;-6.536;2023-06-22T19:30:49;10.52;;;3.45;;
64353;SDS011;50681;53.334;-6.536;2023-06-22T19:33:16;5.55;;;3.20;;
64353;SDS011;50681;53.334;-6.536;2023-06-22T19:38:08;6.60;;;3.42;;
64353;SDS011;50681;53.334;-6.536;2023-06-22T19:40:34;5.03;;;3.13;;
64353;SDS011;50681;53.334;-6.536;2023-06-22T19:43:05;4.78;;;3.20;;
64353;SDS011;50681;53.334;-6.536;2023-06-22T19:45:33;5.45;;;3.17;;
64353;SDS011;50681;53.334;-6.536;2023-06-22T19:48:06;6.15;;;2.88;;
64353;SDS011;50681;53.334;-6.536;2023-06-22T19:50:33;7.50;;;3.38;;
64353;SDS011;50681;53.334;-6.536;2023-06-22T19:55:27;11.02;;;3.72;;
64353;SDS011;50681;53.334;-6.536;2023-06-22T19:57:53;6.18;;;3.35;;
64353;SDS011;50681;53.334;-6.536;2023-06-22T20:00:21;8.77;;;3.33;;
64353;SDS011;50681;53.334;-6.536;2023-06-22T20:02:49;9.05;;;3.40;;
64353;SDS011;50681;53.334;-6.536;2023-06-22T20:05:19;6.32;;;3.45;;
64353;SDS011;50681;53.334;-6.536;2023-06-22T20:07:45;6.50;;;2.92;;
64353;SDS011;50681;53.334;-6.536;2023-06-22T20:12:38;4.88;;;3.03;;
64353;SDS011;50681;53.334;-6.536;2023-06-22T20:15:23;10.18;;;3.75;;
64353;SDS011;50681;53.334;-6.536;2023-06-22T20:18:00;4.63;;;2.85;;
64353;SDS011;50681;53.334;-6.536;2023-06-22T20:20:35;8.18;;;3.20;;
64353;SDS011;50681;53.334;-6.536;2023-06-22T20:23:02;7.63;;;3.63;;
64353;SDS011;50681;53.334;-6.536;2023-06-22T20:25:30;10.95;;;3.42;;
64353;SDS011;50681;53.334;-6.536;2023-06-22T20:28:05;5.45;;;3.35;;
64353;SDS011;50681;53.334;-6.536;2023-06-22T20:30:34;8.18;;;3.70;;
64353;SDS011;50681;53.334;-6.536;2023-06-22T20:33:00;5.05;;;3.15;;
64353;SDS011;50681;53.334;-6.536;2023-06-22T20:35:29;5.28;;;3.33;;
64353;SDS011;50681;53.334;-6.536;2023-06-22T20:37:54;7.82;;;3.65;;
64353;SDS011;50681;53.334;-6.536;2023-06-22T20:40:25;6.03;;;3.85;;
64353;SDS011;50681;53.334;-6.536;2023-06-22T20:43:00;5.85;;;3.22;;
64353;SDS011;50681;53.334;-6.536;2023-06-22T20:45:26;6.13;;;3.40;;
64353;SDS011;50681;53.334;-6.536;2023-06-22T20:47:54;5.32;;;3.35;;
64353;SDS011;50681;53.334;-6.536;2023-06-22T20:50:25;6.35;;;3.50;;
64353;SDS011;50681;53.334;-6.536;2023-06-22T20:52:55;6.65;;;3.40;;
64353;SDS011;50681;53.334;-6.536;2023-06-22T20:55:21;8.93;;;3.60;;
64353;SDS011;50681;53.334;-6.536;2023-06-22T20:57:47;5.95;;;3.45;;
64353;SDS011;50681;53.334;-6.536;2023-06-22T21:02:39;7.25;;;3.72;;
64353;SDS011;50681;53.334;-6.536;2023-06-22T21:07:31;7.20;;;3.72;;
64353;SDS011;50681;53.334;-6.536;2023-06-22T21:09:56;8.80;;;3.80;;
64353;SDS011;50681;53.334;-6.536;2023-06-22T21:12:21;6.00;;;3.33;;
64353;SDS011;50681;53.334;-6.536;2023-06-22T21:14:47;8.32;;;3.78;;
64353;SDS011;50681;53.334;-6.536;2023-06-22T21:17:14;6.80;;;3.58;;
64353;SDS011;50681;53.334;-6.536;2023-06-22T21:19:41;6.40;;;3.53;;
64353;SDS011;50681;53.334;-6.536;2023-06-22T21:22:06;7.90;;;3.58;;
64353;SDS011;50681;53.334;-6.536;2023-06-22T21:24:32;6.43;;;3.70;;
64353;SDS011;50681;53.334;-6.536;2023-06-22T21:26:57;5.47;;;3.88;;
64353;SDS011;50681;53.334;-6.536;2023-06-22T21:29:25;6.57;;;3.70;;
64353;SDS011;50681;53.334;-6.536;2023-06-22T21:31:51;10.60;;;3.63;;
64353;SDS011;50681;53.334;-6.536;2023-06-22T21:34:16;6.88;;;3.70;;
64353;SDS011;50681;53.334;-6.536;2023-06-22T21:36:42;6.90;;;3.50;;
64353;SDS011;50681;53.334;-6.536;2023-06-22T21:39:07;6.03;;;3.75;;
64353;SDS011;50681;53.334;-6.536;2023-06-22T21:41:33;6.45;;;4.03;;
64353;SDS011;50681;53.334;-6.536;2023-06-22T21:43:58;6.53;;;3.60;;
64353;SDS011;50681;53.334;-6.536;2023-06-22T21:46:24;7.70;;;3.90;;
64353;SDS011;50681;53.334;-6.536;2023-06-22T21:48:49;9.95;;;3.60;;
64353;SDS011;50681;53.334;-6.536;2023-06-22T21:57:22;8.48;;;3.30;;
64353;SDS011;50681;53.334;-6.536;2023-06-22T21:59:51;6.28;;;3.35;;
64353;SDS011;50681;53.334;-6.536;2023-06-22T22:02:20;6.47;;;3.35;;
64353;SDS011;50681;53.334;-6.536;2023-06-22T22:04:46;5.22;;;3.10;;
64353;SDS011;50681;53.334;-6.536;2023-06-22T22:07:11;6.65;;;3.10;;
64353;SDS011;50681;53.334;-6.536;2023-06-22T22:09:37;6.72;;;3.03;;
64353;SDS011;50681;53.334;-6.536;2023-06-22T22:12:03;6.63;;;3.07;;
64353;SDS011;50681;53.334;-6.536;2023-06-22T22:14:30;5.60;;;3.42;;
64353;SDS011;50681;53.334;-6.536;2023-06-22T22:16:57;7.38;;;2.80;;
64353;SDS011;50681;53.334;-6.536;2023-06-22T22:19:24;5.70;;;3.13;;
64353;SDS011;50681;53.334;-6.536;2023-06-22T22:21:50;8.23;;;3.17;;
64353;SDS011;50681;53.334;-6.536;2023-06-22T22:24:15;6.30;;;3.38;;
64353;SDS011;50681;53.334;-6.536;2023-06-22T22:26:41;7.00;;;3.00;;
64353;SDS011;50681;53.334;-6.536;2023-06-22T22:29:06;6.60;;;3.20;;
64353;SDS011;50681;53.334;-6.536;2023-06-22T22:31:32;6.30;;;3.03;;
64353;SDS011;50681;53.334;-6.536;2023-06-22T22:34:03;8.95;;;3.50;;
64353;SDS011;50681;53.334;-6.536;2023-06-22T22:36:32;6.30;;;3.25;;
64353;SDS011;50681;53.334;-6.536;2023-06-22T22:38:58;10.07;;;3.17;;
64353;SDS011;50681;53.334;-6.536;2023-06-22T22:41:24;8.93;;;3.17;;
64353;SDS011;50681;53.334;-6.536;2023-06-22T22:43:49;4.32;;;2.90;;
64353;SDS011;50681;53.334;-6.536;2023-06-22T22:46:15;7.32;;;3.05;;
64353;SDS011;50681;53.334;-6.536;2023-06-22T22:48:43;8.07;;;3.28;;
64353;SDS011;50681;53.334;-6.536;2023-06-22T22:51:09;4.23;;;2.90;;
64353;SDS011;50681;53.334;-6.536;2023-06-22T22:53:35;7.30;;;3.70;;
64353;SDS011;50681;53.334;-6.536;2023-06-22T22:56:03;7.78;;;2.95;;
64353;SDS011;50681;53.334;-6.536;2023-06-22T22:58:28;16.30;;;3.80;;
64353;SDS011;50681;53.334;-6.536;2023-06-22T23:00:54;7.90;;;3.53;;
64353;SDS011;50681;53.334;-6.536;2023-06-22T23:03:20;5.03;;;3.17;;
64353;SDS011;50681;53.334;-6.536;2023-06-22T23:05:46;9.63;;;3.40;;
64353;SDS011;50681;53.334;-6.536;2023-06-22T23:08:11;9.68;;;3.80;;
64353;SDS011;50681;53.334;-6.536;2023-06-22T23:10:39;7.97;;;3.40;;
64353;SDS011;50681;53.334;-6.536;2023-06-22T23:13:04;8.38;;;3.47;;
64353;SDS011;50681;53.334;-6.536;2023-06-22T23:17:55;9.00;;;3.58;;
64353;SDS011;50681;53.334;-6.536;2023-06-22T23:20:21;8.13;;;3.28;;
64353;SDS011;50681;53.334;-6.536;2023-06-22T23:22:51;7.83;;;3.87;;
64353;SDS011;50681;53.334;-6.536;2023-06-22T23:25:22;6.95;;;3.20;;
64353;SDS011;50681;53.334;-6.536;2023-06-22T23:27:49;9.30;;;3.80;;
64353;SDS011;50681;53.334;-6.536;2023-06-22T23:30:15;5.95;;;3.60;;
64353;SDS011;50681;53.334;-6.536;2023-06-22T23:32:40;8.07;;;3.22;;
64353;SDS011;50681;53.334;-6.536;2023-06-22T23:35:06;7.50;;;3.72;;
64353;SDS011;50681;53.334;-6.536;2023-06-22T23:37:38;6.28;;;3.72;;
64353;SDS011;50681;53.334;-6.536;2023-06-22T23:40:07;8.38;;;3.53;;
64353;SDS011;50681;53.334;-6.536;2023-06-22T23:42:41;5.80;;;3.38;;
64353;SDS011;50681;53.334;-6.536;2023-06-22T23:45:13;5.03;;;3.45;;
64353;SDS011;50681;53.334;-6.536;2023-06-22T23:47:42;7.90;;;3.25;;
64353;SDS011;50681;53.334;-6.536;2023-06-22T23:50:11;7.38;;;3.58;;
64353;SDS011;50681;53.334;-6.536;2023-06-22T23:52:38;8.27;;;3.35;;
64353;SDS011;50681;53.334;-6.536;2023-06-22T23:55:05;8.32;;;4.57;;
64353;SDS011;50681;53.334;-6.536;2023-06-22T23:57:32;9.45;;;3.72;;
